Cielo Di Iyo — HOET — position and weather

sailwx.info

Track history (hours):
 
Tides and Currents Weather Stations Pressure Air Temp Water Temp Dewpoint Dewpoint Depression Visibility Wind Speed Wind Dir Waves Ship Positions

Cielo Di Iyo

Last reported at 2018-May-26 09:49 UTC. Time now 2018-May-27 11:56 UTC.
Position N 37°40' E 015°58'.

Length 183 m; draft 7.8 m.

Type: Cargo ship. MMSI: 372771000.

Date/timePositionNaut miles runAvg speedWind from/ knotsBaromVisibWave heightAir tempDewpointWater temp
2018-May-26 09:49N 37°40' E 015°58'411.9
2018-May-26 09:29N 37°42' E 015°53'612.8
2018-May-26 09:00N 37°45' E 015°47'1612.3
2018-May-26 07:41N 37°57' E 015°32'213.5
2018-May-26 07:30N 37°59' E 015°33'713.1
2018-May-26 07:00N 38°06' E 015°34'713.3
2018-May-26 06:31N 38°12' E 015°35'9 8.9
2018-May-26 05:31N 38°20' E 015°40'5 9.8
2018-May-26 05:00N 38°25' E 015°40'612.6
2018-May-26 04:30N 38°31' E 015°39'1213.2
2018-May-26 03:34N 38°44' E 015°37'213.4
2018-May-26 03:26N 38°45' E 015°36'10913.0
2018-May-25 19:01N 40°16' E 014°18'713.5
2018-May-25 18:30N 40°22' E 014°13'713.5
2018-May-25 18:00N 40°28' E 014°08'611.6
2018-May-25 17:29N 40°33' E 014°06'613.3
2018-May-25 17:01N 40°39' E 014°10'612.9
2018-May-25 16:30N 40°45' E 014°14'5 9.9
2018-May-25 15:59N 40°49' E 014°17'1 2.2
2018-May-25 15:28N 40°51' E 014°17'0 0.0
2018-May-25 14:58N 40°51' E 014°17'0 0.0
2018-May-25 14:28N 40°51' E 014°17'0 0.0
2018-May-25 13:58N 40°51' E 014°17'0 0.0
2018-May-25 13:19N 40°51' E 014°17'0 0.0
2018-May-25 12:58N 40°51' E 014°17'0 0.0
2018-May-25 12:28N 40°51' E 014°17'0 0.0
2018-May-25 11:58N 40°51' E 014°17'0 0.0
2018-May-25 11:16N 40°51' E 014°17'0 0.0
2018-May-25 10:55N 40°51' E 014°17'0 0.0
2018-May-25 10:22N 40°51' E 014°17'0 0.0
2018-May-25 07:52N 40°51' E 014°17'0 0.0
2018-May-25 07:28N 40°51' E 014°17'0 0.0
2018-May-25 06:58N 40°51' E 014°17'0 0.0
2018-May-25 06:28N 40°51' E 014°17'0 0.0
2018-May-25 05:58N 40°51' E 014°17'0 0.0
2018-May-25 05:28N 40°51' E 014°17'0 0.0
2018-May-25 04:58N 40°51' E 014°17'0 0.0
2018-May-25 04:28N 40°51' E 014°17'0 0.0
2018-May-25 03:46N 40°51' E 014°17'0 0.0
2018-May-25 03:28N 40°51' E 014°17'0 0.0
2018-May-25 02:58N 40°51' E 014°17'0 0.0
2018-May-25 02:28N 40°51' E 014°17'0 0.0
2018-May-25 01:58N 40°51' E 014°17'0 0.0
2018-May-25 01:25N 40°51' E 014°17'0 0.0
2018-May-25 00:55N 40°51' E 014°17'0 0.0
2018-May-25 00:28N 40°51' E 014°17'0 0.0
2018-May-24 23:58N 40°51' E 014°17'0 0.0
2018-May-24 23:28N 40°51' E 014°17'0 0.0
2018-May-24 23:00N 40°51' E 014°17'1 2.4
2018-May-24 22:30N 40°49' E 014°17'1 1.6
2018-May-24 22:00N 40°49' E 014°17'0 0.6
2018-May-24 21:30N 40°48' E 014°17'1 2.1
2018-May-24 21:01N 40°47' E 014°17'3 6.9
2018-May-24 20:30N 40°45' E 014°13'510.9
2018-May-24 20:00N 40°41' E 014°08'612.1
2018-May-24 19:30N 40°39' E 014°01'713.1
2018-May-24 19:00N 40°37' E 013°52'20212.7
2018-May-24 03:04N 42°51' E 010°31'112.9
2018-May-24 03:00N 42°52' E 010°31'713.0
2018-May-24 02:28N 42°58' E 010°26'613.3
2018-May-24 02:00N 43°04' E 010°23'612.9
2018-May-24 01:30N 43°10' E 010°21'612.8
2018-May-24 01:00N 43°16' E 010°18'612.9
2018-May-24 00:30N 43°23' E 010°15'612.6
2018-May-24 00:00N 43°29' E 010°13'4 7.3
2018-May-23 23:30N 43°32' E 010°15'2 4.9
2018-May-23 23:00N 43°33' E 010°18'1 2.7
2018-May-23 22:30N 43°35' E 010°18'0 0.0
2018-May-23 22:00N 43°35' E 010°18'0 0.0
2018-May-23 21:30N 43°35' E 010°18'0 0.0
2018-May-23 21:00N 43°35' E 010°18'0 0.0
2018-May-23 20:30N 43°35' E 010°18'0 0.0
2018-May-23 20:00N 43°35' E 010°18'0 0.0
2018-May-23 19:30N 43°35' E 010°18'0 0.0
2018-May-23 19:00N 43°35' E 010°18'0 0.0
2018-May-23 18:30N 43°35' E 010°18'0 0.0
2018-May-23 18:00N 43°35' E 010°18'0 0.0
2018-May-23 17:30N 43°35' E 010°18'0 0.0
2018-May-23 17:00N 43°35' E 010°18'0 0.0
2018-May-23 16:30N 43°35' E 010°18'0 0.0
2018-May-23 16:00N 43°35' E 010°18'0 0.0
2018-May-23 15:30N 43°35' E 010°18'0 0.0
2018-May-23 15:00N 43°35' E 010°18'0 0.0
2018-May-23 14:24N 43°35' E 010°18'0 0.0
2018-May-23 14:00N 43°35' E 010°18'0 0.0
2018-May-23 13:30N 43°35' E 010°18'0 0.0
2018-May-23 13:00N 43°35' E 010°18'0 0.0
2018-May-23 12:30N 43°35' E 010°18'0 0.0
2018-May-23 12:00N 43°35' E 010°18'0 0.0
2018-May-23 11:30N 43°35' E 010°18'0 0.0
2018-May-23 11:00N 43°35' E 010°18'0 0.0
2018-May-23 10:30N 43°35' E 010°18'0 0.0
2018-May-23 10:00N 43°35' E 010°18'0 0.0
2018-May-23 09:30N 43°35' E 010°18'0 0.0
2018-May-23 09:00N 43°35' E 010°18'0 0.0
2018-May-23 08:29N 43°35' E 010°18'0 0.0
2018-May-23 07:59N 43°35' E 010°18'0 0.0
2018-May-23 07:26N 43°35' E 010°18'0 0.0
2018-May-23 06:59N 43°35' E 010°18'0 0.0
2018-May-23 06:29N 43°35' E 010°18'0 0.0
2018-May-23 05:59N 43°35' E 010°18'0 0.0
2018-May-23 05:29N 43°35' E 010°18'0 0.0
2018-May-23 04:59N 43°35' E 010°18'0 0.0
2018-May-23 04:29N 43°35' E 010°18'0 0.0
2018-May-23 03:59N 43°35' E 010°18'0 0.0
2018-May-23 03:29N 43°35' E 010°18'0 0.0
2018-May-23 02:59N 43°35' E 010°18'0 0.0
2018-May-23 02:29N 43°35' E 010°18'0 0.0
2018-May-23 01:59N 43°35' E 010°18'0 0.0
2018-May-23 01:29N 43°35' E 010°18'0 0.0
2018-May-23 00:59N 43°35' E 010°18'0 0.0
2018-May-23 00:29N 43°35' E 010°18'0 0.0
2018-May-22 23:59N 43°35' E 010°18'0 0.0
2018-May-22 23:29N 43°35' E 010°18'0 0.0
2018-May-22 22:59N 43°35' E 010°18'0 0.0
2018-May-22 22:29N 43°35' E 010°18'0 0.0
2018-May-22 21:59N 43°35' E 010°18'0 0.0
2018-May-22 21:29N 43°35' E 010°18'0 0.0
2018-May-22 20:59N 43°35' E 010°18'0 0.0
2018-May-22 20:26N 43°35' E 010°18'0 0.0
2018-May-22 19:59N 43°35' E 010°18'0 0.0
2018-May-22 19:29N 43°35' E 010°18'0 0.0
2018-May-22 18:59N 43°35' E 010°18'0 0.0
2018-May-22 18:26N 43°35' E 010°18'0 0.0
2018-May-22 17:59N 43°35' E 010°18'0 0.0
2018-May-22 17:29N 43°35' E 010°18'0 0.0
2018-May-22 16:59N 43°35' E 010°18'0 0.0
2018-May-22 16:29N 43°35' E 010°18'0 0.0
2018-May-22 15:59N 43°35' E 010°18'0 0.0
2018-May-22 15:29N 43°35' E 010°18'0 0.0
2018-May-22 14:59N 43°35' E 010°18'0 0.0
2018-May-22 14:28N 43°35' E 010°18'0 0.0
2018-May-22 13:58N 43°35' E 010°18'0 0.0
2018-May-22 13:28N 43°35' E 010°18'0 0.0
2018-May-22 12:58N 43°35' E 010°18'0 0.0
2018-May-22 12:28N 43°35' E 010°18'0 0.0
2018-May-22 11:58N 43°35' E 010°18'0 0.0
2018-May-22 11:28N 43°35' E 010°18'0 0.0
2018-May-22 10:55N 43°35' E 010°18'0 0.0
2018-May-22 10:28N 43°35' E 010°18'0 0.0
2018-May-22 09:58N 43°35' E 010°18'0 0.0
2018-May-22 09:28N 43°35' E 010°18'0 0.0
2018-May-22 08:58N 43°35' E 010°18'0 0.0
2018-May-22 08:28N 43°35' E 010°18'0 0.0
2018-May-22 07:58N 43°35' E 010°18'0 0.0
2018-May-22 07:28N 43°35' E 010°18'0 0.0
2018-May-22 06:58N 43°35' E 010°18'0 0.0
2018-May-22 06:28N 43°35' E 010°18'0 0.0
2018-May-22 05:58N 43°35' E 010°18'0 0.0
2018-May-22 05:28N 43°35' E 010°18'0 0.0
2018-May-22 04:58N 43°35' E 010°18'0 0.0
2018-May-22 04:28N 43°35' E 010°18'0 0.0
2018-May-22 03:58N 43°35' E 010°18'0 0.0
2018-May-22 03:28N 43°35' E 010°18'0 0.0
2018-May-22 02:58N 43°35' E 010°18'0 0.0
2018-May-22 02:28N 43°35' E 010°18'0 0.0
2018-May-22 01:58N 43°35' E 010°18'0 0.0
2018-May-22 01:28N 43°35' E 010°18'0 0.0
2018-May-22 00:58N 43°35' E 010°18'0 0.0
2018-May-22 00:28N 43°35' E 010°18'0 0.0
2018-May-21 23:58N 43°35' E 010°18'0 0.0
2018-May-21 23:28N 43°35' E 010°18'0 0.0
2018-May-21 22:58N 43°35' E 010°18'0 0.0
2018-May-21 22:28N 43°35' E 010°18'0 0.0
2018-May-21 21:58N 43°35' E 010°18'0 0.0
2018-May-21 21:28N 43°35' E 010°18'0 0.0
2018-May-21 20:50N 43°35' E 010°18'0 0.0
2018-May-21 20:26N 43°35' E 010°18'0 0.0
2018-May-21 19:59N 43°35' E 010°18'0 0.0
2018-May-21 19:29N 43°35' E 010°18'0 0.0
2018-May-21 18:59N 43°35' E 010°18'0 0.0
2018-May-21 18:29N 43°35' E 010°18'0 0.0
2018-May-21 17:59N 43°35' E 010°18'0 0.0
2018-May-21 17:29N 43°35' E 010°18'0 0.0
2018-May-21 16:59N 43°35' E 010°18'0 0.0
2018-May-21 16:29N 43°35' E 010°18'0 0.0
2018-May-21 15:59N 43°35' E 010°18'0 0.0
2018-May-21 15:29N 43°35' E 010°18'0 0.0
2018-May-21 14:59N 43°35' E 010°18'0 0.0
2018-May-21 14:29N 43°35' E 010°18'0 0.0
2018-May-21 13:56N 43°35' E 010°18'0 0.0
2018-May-21 13:29N 43°35' E 010°18'0 0.0
2018-May-21 12:59N 43°35' E 010°18'0 0.0
2018-May-21 12:29N 43°35' E 010°18'0 0.0
2018-May-21 11:59N 43°35' E 010°18'0 0.0
2018-May-21 11:29N 43°35' E 010°18'0 0.0
2018-May-21 10:59N 43°35' E 010°18'0 0.0
2018-May-21 10:26N 43°35' E 010°18'0 0.0
2018-May-21 09:59N 43°35' E 010°18'0 0.0
2018-May-21 09:29N 43°35' E 010°18'0 0.0
2018-May-21 08:59N 43°35' E 010°18'0 0.0
2018-May-21 08:29N 43°35' E 010°18'0 0.0
2018-May-21 07:56N 43°35' E 010°18'0 0.0
2018-May-21 07:29N 43°35' E 010°18'0 0.0
2018-May-21 06:59N 43°35' E 010°18'0 0.0
2018-May-21 06:29N 43°35' E 010°18'0 0.0
2018-May-21 05:59N 43°35' E 010°18'0 0.0
2018-May-21 05:26N 43°35' E 010°18'0 0.0
2018-May-21 04:59N 43°35' E 010°18'0 0.0
2018-May-21 04:29N 43°35' E 010°18'0 0.0
2018-May-21 03:59N 43°35' E 010°18'0 0.0
2018-May-21 03:29N 43°35' E 010°18'0 0.0
2018-May-21 02:59N 43°35' E 010°18'0 0.0
2018-May-21 02:28N 43°35' E 010°18'0 0.0
2018-May-21 01:58N 43°35' E 010°18'0 0.0
2018-May-21 01:28N 43°35' E 010°18'0 0.0
2018-May-21 00:58N 43°35' E 010°18'0 0.0
2018-May-21 00:28N 43°35' E 010°18'0 0.0
2018-May-20 23:58N 43°35' E 010°18'0 0.0
2018-May-20 23:28N 43°35' E 010°18'0 0.0
2018-May-20 22:58N 43°35' E 010°18'0 0.0
2018-May-20 22:28N 43°35' E 010°18'0 0.0
2018-May-20 21:58N 43°35' E 010°18'0 0.0
2018-May-20 21:28N 43°35' E 010°18'0 0.0
2018-May-20 20:58N 43°35' E 010°18'0 0.0
2018-May-20 20:28N 43°35' E 010°18'0 0.0
2018-May-20 19:58N 43°35' E 010°18'0 0.0
2018-May-20 19:28N 43°35' E 010°18'0 0.0
2018-May-20 18:58N 43°35' E 010°18'0 0.0
2018-May-20 18:28N 43°35' E 010°18'0 0.0
2018-May-20 17:58N 43°35' E 010°18'0 0.0
2018-May-20 17:28N 43°35' E 010°18'0 0.0
2018-May-20 16:58N 43°35' E 010°18'0 0.0
2018-May-20 16:28N 43°35' E 010°18'0 0.0
2018-May-20 15:58N 43°35' E 010°18'0 0.0
2018-May-20 15:28N 43°35' E 010°18'0 0.0
2018-May-20 14:58N 43°35' E 010°18'0 0.0
2018-May-20 14:28N 43°35' E 010°18'0 0.0
2018-May-20 13:58N 43°35' E 010°18'0 0.0
2018-May-20 13:25N 43°35' E 010°18'0 0.0
2018-May-20 12:58N 43°35' E 010°18'0 0.0
2018-May-20 12:28N 43°35' E 010°18'0 0.0
2018-May-20 11:58N 43°35' E 010°18'0 0.0
2018-May-20 11:28N 43°35' E 010°18'0 0.0
2018-May-20 10:58N 43°35' E 010°18'0 0.0
2018-May-20 10:28N 43°35' E 010°18'0 0.0
2018-May-20 09:58N 43°35' E 010°18'0 0.0
2018-May-20 09:22N 43°35' E 010°18'0 0.0
2018-May-20 08:58N 43°35' E 010°18'0 0.0
2018-May-20 08:28N 43°35' E 010°18'0 0.0
2018-May-20 07:52N 43°35' E 010°18'0 0.0
2018-May-20 07:28N 43°35' E 010°18'0 0.0
2018-May-20 06:58N 43°35' E 010°18'0 0.0
2018-May-20 06:28N 43°35' E 010°18'0 0.0
2018-May-20 05:58N 43°35' E 010°18'0 0.0
2018-May-20 05:28N 43°35' E 010°18'0 0.0
2018-May-20 04:58N 43°35' E 010°18'0 0.0
2018-May-20 04:28N 43°35' E 010°18'0 0.0
2018-May-20 03:58N 43°35' E 010°18'0 0.0
2018-May-20 03:28N 43°35' E 010°18'0 0.0
2018-May-20 02:58N 43°35' E 010°18'0 0.0
2018-May-20 02:25N 43°35' E 010°18'0 0.0
2018-May-20 01:58N 43°35' E 010°18'0 0.0
2018-May-20 01:28N 43°35' E 010°18'0 0.0
2018-May-20 00:58N 43°35' E 010°18'0 0.0
2018-May-20 00:28N 43°35' E 010°18'0 0.0
2018-May-19 23:58N 43°35' E 010°18'0 0.0
2018-May-19 23:28N 43°35' E 010°18'0 0.0
2018-May-19 22:58N 43°35' E 010°18'0 0.0
2018-May-19 22:28N 43°35' E 010°18'0 0.0
2018-May-19 21:58N 43°35' E 010°18'0 0.0
2018-May-19 21:28N 43°35' E 010°18'0 0.0
2018-May-19 20:58N 43°35' E 010°18'0 0.0
2018-May-19 20:28N 43°35' E 010°18'0 0.0
2018-May-19 19:58N 43°35' E 010°18'0 0.0
2018-May-19 19:28N 43°35' E 010°18'0 0.0
2018-May-19 18:58N 43°35' E 010°18'0 0.0
2018-May-19 18:28N 43°35' E 010°18'0 0.0
2018-May-19 17:58N 43°35' E 010°18'0 0.0
2018-May-19 17:28N 43°35' E 010°18'0 0.0
2018-May-19 16:58N 43°35' E 010°18'0 0.0
2018-May-19 16:22N 43°35' E 010°18'0 0.0
2018-May-19 15:55N 43°35' E 010°18'0 0.0
2018-May-19 15:28N 43°35' E 010°18'0 0.0
2018-May-19 14:58N 43°35' E 010°18'0 0.0
2018-May-19 14:28N 43°35' E 010°18'0 0.0
2018-May-19 13:58N 43°35' E 010°18'0 0.0
2018-May-19 13:28N 43°35' E 010°18'0 0.0
2018-May-19 12:58N 43°35' E 010°18'0 0.5
2018-May-19 12:30N 43°34' E 010°18'2 3.1
2018-May-19 12:00N 43°33' E 010°17'3 5.3
2018-May-19 11:30N 43°31' E 010°15'1 1.6
2018-May-19 11:00N 43°30' E 010°14'2 3.9
2018-May-19 10:30N 43°29' E 010°12'510.8
2018-May-19 10:00N 43°25' E 010°07'612.6
2018-May-19 09:30N 43°21' E 010°01'612.1
2018-May-19 09:00N 43°18' E 009°54'612.8
2018-May-19 08:30N 43°16' E 009°45'612.9
2018-May-19 08:00N 43°15' E 009°37'612.6
2018-May-19 07:30N 43°14' E 009°28'713.1
2018-May-19 07:00N 43°13' E 009°19'713.3
2018-May-19 06:30N 43°11' E 009°10'713.7
2018-May-19 06:00N 43°10' E 009°01'713.9
2018-May-19 05:31N 43°08' E 008°52'713.5
2018-May-19 05:01N 43°07' E 008°43'713.1
2018-May-19 04:30N 43°05' E 008°34'713.0
2018-May-19 04:00N 43°04' E 008°25'613.1
2018-May-19 03:31N 43°03' E 008°17'712.8
2018-May-19 02:57N 43°01' E 008°07'612.5
2018-May-19 02:30N 43°00' E 007°60'612.5
2018-May-19 02:00N 42°59' E 007°51'612.9
2018-May-19 01:31N 42°57' E 007°43'1212.8
2018-May-19 00:37N 42°55' E 007°27'112.9
2018-May-19 00:31N 42°55' E 007°26'712.6
2018-May-18 23:59N 42°53' E 007°17'812.5
2018-May-18 23:23N 42°52' E 007°07'512.6
2018-May-18 23:01N 42°51' E 007°00'612.5
2018-May-18 22:30N 42°50' E 006°52'9412.1
2018-May-18 14:43N 43°04' E 004°45'312.9
2018-May-18 14:29N 43°05' E 004°41'612.9
2018-May-18 14:00N 43°07' E 004°33'2212.8
2018-May-18 12:19N 43°14' E 004°05'412.6
2018-May-18 11:59N 43°16' E 003°60'812.6
2018-May-18 11:22N 43°19' E 003°50'411.5
2018-May-18 11:00N 43°22' E 003°46'3 6.3
2018-May-18 10:30N 43°24' E 003°43'0 0.1
2018-May-18 06:11N 43°24' E 003°43'0 0.0
2018-May-18 05:41N 43°24' E 003°43'0 0.0
2018-May-18 05:17N 43°24' E 003°43'0 0.0
2018-May-18 03:53N 43°24' E 003°43'0 0.0
2018-May-17 21:53N 43°24' E 003°43'0 0.0
2018-May-17 21:29N 43°24' E 003°43'0 0.0
2018-May-17 20:59N 43°24' E 003°43'0 0.0
2018-May-17 20:29N 43°24' E 003°43'  
Track history (hours):
 
Tides and Currents Weather Stations Pressure Air Temp Water Temp Dewpoint Dewpoint Depression Visibility Wind Speed Wind Dir Waves Ship Positions

Cielo Di Iyo

Last reported at 2018-May-26 09:49 UTC. Time now 2018-May-27 11:56 UTC.
Position N 37°40' E 015°58'.

Length 183 m; draft 7.8 m.

Type: Cargo ship. MMSI: 372771000.

Date/timePositionNaut miles runAvg speedWind from/ knotsBaromVisibWave heightAir tempDewpointWater temp
2018-May-26 09:49N 37°40' E 015°58'411.9
2018-May-26 09:29N 37°42' E 015°53'612.8
2018-May-26 09:00N 37°45' E 015°47'1612.3
2018-May-26 07:41N 37°57' E 015°32'213.5
2018-May-26 07:30N 37°59' E 015°33'713.1
2018-May-26 07:00N 38°06' E 015°34'713.3
2018-May-26 06:31N 38°12' E 015°35'9 8.9
2018-May-26 05:31N 38°20' E 015°40'5 9.8
2018-May-26 05:00N 38°25' E 015°40'612.6
2018-May-26 04:30N 38°31' E 015°39'1213.2
2018-May-26 03:34N 38°44' E 015°37'213.4
2018-May-26 03:26N 38°45' E 015°36'10913.0
2018-May-25 19:01N 40°16' E 014°18'713.5
2018-May-25 18:30N 40°22' E 014°13'713.5
2018-May-25 18:00N 40°28' E 014°08'611.6
2018-May-25 17:29N 40°33' E 014°06'613.3
2018-May-25 17:01N 40°39' E 014°10'612.9
2018-May-25 16:30N 40°45' E 014°14'5 9.9
2018-May-25 15:59N 40°49' E 014°17'1 2.2
2018-May-25 15:28N 40°51' E 014°17'0 0.0
2018-May-25 14:58N 40°51' E 014°17'0 0.0
2018-May-25 14:28N 40°51' E 014°17'0 0.0
2018-May-25 13:58N 40°51' E 014°17'0 0.0
2018-May-25 13:19N 40°51' E 014°17'0 0.0
2018-May-25 12:58N 40°51' E 014°17'0 0.0
2018-May-25 12:28N 40°51' E 014°17'0 0.0
2018-May-25 11:58N 40°51' E 014°17'0 0.0
2018-May-25 11:16N 40°51' E 014°17'0 0.0
2018-May-25 10:55N 40°51' E 014°17'0 0.0
2018-May-25 10:22N 40°51' E 014°17'0 0.0
2018-May-25 07:52N 40°51' E 014°17'0 0.0
2018-May-25 07:28N 40°51' E 014°17'0 0.0
2018-May-25 06:58N 40°51' E 014°17'0 0.0
2018-May-25 06:28N 40°51' E 014°17'0 0.0
2018-May-25 05:58N 40°51' E 014°17'0 0.0
2018-May-25 05:28N 40°51' E 014°17'0 0.0
2018-May-25 04:58N 40°51' E 014°17'0 0.0
2018-May-25 04:28N 40°51' E 014°17'0 0.0
2018-May-25 03:46N 40°51' E 014°17'0 0.0
2018-May-25 03:28N 40°51' E 014°17'0 0.0
2018-May-25 02:58N 40°51' E 014°17'0 0.0
2018-May-25 02:28N 40°51' E 014°17'0 0.0
2018-May-25 01:58N 40°51' E 014°17'0 0.0
2018-May-25 01:25N 40°51' E 014°17'0 0.0
2018-May-25 00:55N 40°51' E 014°17'0 0.0
2018-May-25 00:28N 40°51' E 014°17'0 0.0
2018-May-24 23:58N 40°51' E 014°17'0 0.0
2018-May-24 23:28N 40°51' E 014°17'0 0.0
2018-May-24 23:00N 40°51' E 014°17'1 2.4
2018-May-24 22:30N 40°49' E 014°17'1 1.6
2018-May-24 22:00N 40°49' E 014°17'0 0.6
2018-May-24 21:30N 40°48' E 014°17'1 2.1
2018-May-24 21:01N 40°47' E 014°17'3 6.9
2018-May-24 20:30N 40°45' E 014°13'510.9
2018-May-24 20:00N 40°41' E 014°08'612.1
2018-May-24 19:30N 40°39' E 014°01'713.1
2018-May-24 19:00N 40°37' E 013°52'20212.7
2018-May-24 03:04N 42°51' E 010°31'112.9
2018-May-24 03:00N 42°52' E 010°31'713.0
2018-May-24 02:28N 42°58' E 010°26'613.3
2018-May-24 02:00N 43°04' E 010°23'612.9
2018-May-24 01:30N 43°10' E 010°21'612.8
2018-May-24 01:00N 43°16' E 010°18'612.9
2018-May-24 00:30N 43°23' E 010°15'612.6
2018-May-24 00:00N 43°29' E 010°13'4 7.3
2018-May-23 23:30N 43°32' E 010°15'2 4.9
2018-May-23 23:00N 43°33' E 010°18'1 2.7
2018-May-23 22:30N 43°35' E 010°18'0 0.0
2018-May-23 22:00N 43°35' E 010°18'0 0.0
2018-May-23 21:30N 43°35' E 010°18'0 0.0
2018-May-23 21:00N 43°35' E 010°18'0 0.0
2018-May-23 20:30N 43°35' E 010°18'0 0.0
2018-May-23 20:00N 43°35' E 010°18'0 0.0
2018-May-23 19:30N 43°35' E 010°18'0 0.0
2018-May-23 19:00N 43°35' E 010°18'0 0.0
2018-May-23 18:30N 43°35' E 010°18'0 0.0
2018-May-23 18:00N 43°35' E 010°18'0 0.0
2018-May-23 17:30N 43°35' E 010°18'0 0.0
2018-May-23 17:00N 43°35' E 010°18'0 0.0
2018-May-23 16:30N 43°35' E 010°18'0 0.0
2018-May-23 16:00N 43°35' E 010°18'0 0.0
2018-May-23 15:30N 43°35' E 010°18'0 0.0
2018-May-23 15:00N 43°35' E 010°18'0 0.0
2018-May-23 14:24N 43°35' E 010°18'0 0.0
2018-May-23 14:00N 43°35' E 010°18'0 0.0
2018-May-23 13:30N 43°35' E 010°18'0 0.0
2018-May-23 13:00N 43°35' E 010°18'0 0.0
2018-May-23 12:30N 43°35' E 010°18'0 0.0
2018-May-23 12:00N 43°35' E 010°18'0 0.0
2018-May-23 11:30N 43°35' E 010°18'0 0.0
2018-May-23 11:00N 43°35' E 010°18'0 0.0
2018-May-23 10:30N 43°35' E 010°18'0 0.0
2018-May-23 10:00N 43°35' E 010°18'0 0.0
2018-May-23 09:30N 43°35' E 010°18'0 0.0
2018-May-23 09:00N 43°35' E 010°18'0 0.0
2018-May-23 08:29N 43°35' E 010°18'0 0.0
2018-May-23 07:59N 43°35' E 010°18'0 0.0
2018-May-23 07:26N 43°35' E 010°18'0 0.0
2018-May-23 06:59N 43°35' E 010°18'0 0.0
2018-May-23 06:29N 43°35' E 010°18'0 0.0
2018-May-23 05:59N 43°35' E 010°18'0 0.0
2018-May-23 05:29N 43°35' E 010°18'0 0.0
2018-May-23 04:59N 43°35' E 010°18'0 0.0
2018-May-23 04:29N 43°35' E 010°18'0 0.0
2018-May-23 03:59N 43°35' E 010°18'0 0.0
2018-May-23 03:29N 43°35' E 010°18'0 0.0
2018-May-23 02:59N 43°35' E 010°18'0 0.0
2018-May-23 02:29N 43°35' E 010°18'0 0.0
2018-May-23 01:59N 43°35' E 010°18'0 0.0
2018-May-23 01:29N 43°35' E 010°18'0 0.0
2018-May-23 00:59N 43°35' E 010°18'0 0.0
2018-May-23 00:29N 43°35' E 010°18'0 0.0
2018-May-22 23:59N 43°35' E 010°18'0 0.0
2018-May-22 23:29N 43°35' E 010°18'0 0.0
2018-May-22 22:59N 43°35' E 010°18'0 0.0
2018-May-22 22:29N 43°35' E 010°18'0 0.0
2018-May-22 21:59N 43°35' E 010°18'0 0.0
2018-May-22 21:29N 43°35' E 010°18'0 0.0
2018-May-22 20:59N 43°35' E 010°18'0 0.0
2018-May-22 20:26N 43°35' E 010°18'0 0.0
2018-May-22 19:59N 43°35' E 010°18'0 0.0
2018-May-22 19:29N 43°35' E 010°18'0 0.0
2018-May-22 18:59N 43°35' E 010°18'0 0.0
2018-May-22 18:26N 43°35' E 010°18'0 0.0
2018-May-22 17:59N 43°35' E 010°18'0 0.0
2018-May-22 17:29N 43°35' E 010°18'0 0.0
2018-May-22 16:59N 43°35' E 010°18'0 0.0
2018-May-22 16:29N 43°35' E 010°18'0 0.0
2018-May-22 15:59N 43°35' E 010°18'0 0.0
2018-May-22 15:29N 43°35' E 010°18'0 0.0
2018-May-22 14:59N 43°35' E 010°18'0 0.0
2018-May-22 14:28N 43°35' E 010°18'0 0.0
2018-May-22 13:58N 43°35' E 010°18'0 0.0
2018-May-22 13:28N 43°35' E 010°18'0 0.0
2018-May-22 12:58N 43°35' E 010°18'0 0.0
2018-May-22 12:28N 43°35' E 010°18'0 0.0
2018-May-22 11:58N 43°35' E 010°18'0 0.0
2018-May-22 11:28N 43°35' E 010°18'0 0.0
2018-May-22 10:55N 43°35' E 010°18'0 0.0
2018-May-22 10:28N 43°35' E 010°18'0 0.0
2018-May-22 09:58N 43°35' E 010°18'0 0.0
2018-May-22 09:28N 43°35' E 010°18'0 0.0
2018-May-22 08:58N 43°35' E 010°18'0 0.0
2018-May-22 08:28N 43°35' E 010°18'0 0.0
2018-May-22 07:58N 43°35' E 010°18'0 0.0
2018-May-22 07:28N 43°35' E 010°18'0 0.0
2018-May-22 06:58N 43°35' E 010°18'0 0.0
2018-May-22 06:28N 43°35' E 010°18'0 0.0
2018-May-22 05:58N 43°35' E 010°18'0 0.0
2018-May-22 05:28N 43°35' E 010°18'0 0.0
2018-May-22 04:58N 43°35' E 010°18'0 0.0
2018-May-22 04:28N 43°35' E 010°18'0 0.0
2018-May-22 03:58N 43°35' E 010°18'0 0.0
2018-May-22 03:28N 43°35' E 010°18'0 0.0
2018-May-22 02:58N 43°35' E 010°18'0 0.0
2018-May-22 02:28N 43°35' E 010°18'0 0.0
2018-May-22 01:58N 43°35' E 010°18'0 0.0
2018-May-22 01:28N 43°35' E 010°18'0 0.0
2018-May-22 00:58N 43°35' E 010°18'0 0.0
2018-May-22 00:28N 43°35' E 010°18'0 0.0
2018-May-21 23:58N 43°35' E 010°18'0 0.0
2018-May-21 23:28N 43°35' E 010°18'0 0.0
2018-May-21 22:58N 43°35' E 010°18'0 0.0
2018-May-21 22:28N 43°35' E 010°18'0 0.0
2018-May-21 21:58N 43°35' E 010°18'0 0.0
2018-May-21 21:28N 43°35' E 010°18'0 0.0
2018-May-21 20:50N 43°35' E 010°18'0 0.0
2018-May-21 20:26N 43°35' E 010°18'0 0.0
2018-May-21 19:59N 43°35' E 010°18'0 0.0
2018-May-21 19:29N 43°35' E 010°18'0 0.0
2018-May-21 18:59N 43°35' E 010°18'0 0.0
2018-May-21 18:29N 43°35' E 010°18'0 0.0
2018-May-21 17:59N 43°35' E 010°18'0 0.0
2018-May-21 17:29N 43°35' E 010°18'0 0.0
2018-May-21 16:59N 43°35' E 010°18'0 0.0
2018-May-21 16:29N 43°35' E 010°18'0 0.0
2018-May-21 15:59N 43°35' E 010°18'0 0.0
2018-May-21 15:29N 43°35' E 010°18'0 0.0
2018-May-21 14:59N 43°35' E 010°18'0 0.0
2018-May-21 14:29N 43°35' E 010°18'0 0.0
2018-May-21 13:56N 43°35' E 010°18'0 0.0
2018-May-21 13:29N 43°35' E 010°18'0 0.0
2018-May-21 12:59N 43°35' E 010°18'0 0.0
2018-May-21 12:29N 43°35' E 010°18'0 0.0
2018-May-21 11:59N 43°35' E 010°18'0 0.0
2018-May-21 11:29N 43°35' E 010°18'0 0.0
2018-May-21 10:59N 43°35' E 010°18'0 0.0
2018-May-21 10:26N 43°35' E 010°18'0 0.0
2018-May-21 09:59N 43°35' E 010°18'0 0.0
2018-May-21 09:29N 43°35' E 010°18'0 0.0
2018-May-21 08:59N 43°35' E 010°18'0 0.0
2018-May-21 08:29N 43°35' E 010°18'0 0.0
2018-May-21 07:56N 43°35' E 010°18'0 0.0
2018-May-21 07:29N 43°35' E 010°18'0 0.0
2018-May-21 06:59N 43°35' E 010°18'0 0.0
2018-May-21 06:29N 43°35' E 010°18'0 0.0
2018-May-21 05:59N 43°35' E 010°18'0 0.0
2018-May-21 05:26N 43°35' E 010°18'0 0.0
2018-May-21 04:59N 43°35' E 010°18'0 0.0
2018-May-21 04:29N 43°35' E 010°18'0 0.0
2018-May-21 03:59N 43°35' E 010°18'0 0.0
2018-May-21 03:29N 43°35' E 010°18'0 0.0
2018-May-21 02:59N 43°35' E 010°18'0 0.0
2018-May-21 02:28N 43°35' E 010°18'0 0.0
2018-May-21 01:58N 43°35' E 010°18'0 0.0
2018-May-21 01:28N 43°35' E 010°18'0 0.0
2018-May-21 00:58N 43°35' E 010°18'0 0.0
2018-May-21 00:28N 43°35' E 010°18'0 0.0
2018-May-20 23:58N 43°35' E 010°18'0 0.0
2018-May-20 23:28N 43°35' E 010°18'0 0.0
2018-May-20 22:58N 43°35' E 010°18'0 0.0
2018-May-20 22:28N 43°35' E 010°18'0 0.0
2018-May-20 21:58N 43°35' E 010°18'0 0.0
2018-May-20 21:28N 43°35' E 010°18'0 0.0
2018-May-20 20:58N 43°35' E 010°18'0 0.0
2018-May-20 20:28N 43°35' E 010°18'0 0.0
2018-May-20 19:58N 43°35' E 010°18'0 0.0
2018-May-20 19:28N 43°35' E 010°18'0 0.0
2018-May-20 18:58N 43°35' E 010°18'0 0.0
2018-May-20 18:28N 43°35' E 010°18'0 0.0
2018-May-20 17:58N 43°35' E 010°18'0 0.0
2018-May-20 17:28N 43°35' E 010°18'0 0.0
2018-May-20 16:58N 43°35' E 010°18'0 0.0
2018-May-20 16:28N 43°35' E 010°18'0 0.0
2018-May-20 15:58N 43°35' E 010°18'0 0.0
2018-May-20 15:28N 43°35' E 010°18'0 0.0
2018-May-20 14:58N 43°35' E 010°18'0 0.0
2018-May-20 14:28N 43°35' E 010°18'0 0.0
2018-May-20 13:58N 43°35' E 010°18'0 0.0
2018-May-20 13:25N 43°35' E 010°18'0 0.0
2018-May-20 12:58N 43°35' E 010°18'0 0.0
2018-May-20 12:28N 43°35' E 010°18'0 0.0
2018-May-20 11:58N 43°35' E 010°18'0 0.0
2018-May-20 11:28N 43°35' E 010°18'0 0.0
2018-May-20 10:58N 43°35' E 010°18'0 0.0
2018-May-20 10:28N 43°35' E 010°18'0 0.0
2018-May-20 09:58N 43°35' E 010°18'0 0.0
2018-May-20 09:22N 43°35' E 010°18'0 0.0
2018-May-20 08:58N 43°35' E 010°18'0 0.0
2018-May-20 08:28N 43°35' E 010°18'0 0.0
2018-May-20 07:52N 43°35' E 010°18'0 0.0
2018-May-20 07:28N 43°35' E 010°18'0 0.0
2018-May-20 06:58N 43°35' E 010°18'0 0.0
2018-May-20 06:28N 43°35' E 010°18'0 0.0
2018-May-20 05:58N 43°35' E 010°18'0 0.0
2018-May-20 05:28N 43°35' E 010°18'0 0.0
2018-May-20 04:58N 43°35' E 010°18'0 0.0
2018-May-20 04:28N 43°35' E 010°18'0 0.0
2018-May-20 03:58N 43°35' E 010°18'0 0.0
2018-May-20 03:28N 43°35' E 010°18'0 0.0
2018-May-20 02:58N 43°35' E 010°18'0 0.0
2018-May-20 02:25N 43°35' E 010°18'0 0.0
2018-May-20 01:58N 43°35' E 010°18'0 0.0
2018-May-20 01:28N 43°35' E 010°18'0 0.0
2018-May-20 00:58N 43°35' E 010°18'0 0.0
2018-May-20 00:28N 43°35' E 010°18'0 0.0
2018-May-19 23:58N 43°35' E 010°18'0 0.0
2018-May-19 23:28N 43°35' E 010°18'0 0.0
2018-May-19 22:58N 43°35' E 010°18'0 0.0
2018-May-19 22:28N 43°35' E 010°18'0 0.0
2018-May-19 21:58N 43°35' E 010°18'0 0.0
2018-May-19 21:28N 43°35' E 010°18'0 0.0
2018-May-19 20:58N 43°35' E 010°18'0 0.0
2018-May-19 20:28N 43°35' E 010°18'0 0.0
2018-May-19 19:58N 43°35' E 010°18'0 0.0
2018-May-19 19:28N 43°35' E 010°18'0 0.0
2018-May-19 18:58N 43°35' E 010°18'0 0.0
2018-May-19 18:28N 43°35' E 010°18'0 0.0
2018-May-19 17:58N 43°35' E 010°18'0 0.0
2018-May-19 17:28N 43°35' E 010°18'0 0.0
2018-May-19 16:58N 43°35' E 010°18'0 0.0
2018-May-19 16:22N 43°35' E 010°18'0 0.0
2018-May-19 15:55N 43°35' E 010°18'0 0.0
2018-May-19 15:28N 43°35' E 010°18'0 0.0
2018-May-19 14:58N 43°35' E 010°18'0 0.0
2018-May-19 14:28N 43°35' E 010°18'0 0.0
2018-May-19 13:58N 43°35' E 010°18'0 0.0
2018-May-19 13:28N 43°35' E 010°18'0 0.0
2018-May-19 12:58N 43°35' E 010°18'0 0.5
2018-May-19 12:30N 43°34' E 010°18'2 3.1
2018-May-19 12:00N 43°33' E 010°17'3 5.3
2018-May-19 11:30N 43°31' E 010°15'1 1.6
2018-May-19 11:00N 43°30' E 010°14'2 3.9
2018-May-19 10:30N 43°29' E 010°12'510.8
2018-May-19 10:00N 43°25' E 010°07'612.6
2018-May-19 09:30N 43°21' E 010°01'612.1
2018-May-19 09:00N 43°18' E 009°54'612.8
2018-May-19 08:30N 43°16' E 009°45'612.9
2018-May-19 08:00N 43°15' E 009°37'612.6
2018-May-19 07:30N 43°14' E 009°28'713.1
2018-May-19 07:00N 43°13' E 009°19'713.3
2018-May-19 06:30N 43°11' E 009°10'713.7
2018-May-19 06:00N 43°10' E 009°01'713.9
2018-May-19 05:31N 43°08' E 008°52'713.5
2018-May-19 05:01N 43°07' E 008°43'713.1
2018-May-19 04:30N 43°05' E 008°34'713.0
2018-May-19 04:00N 43°04' E 008°25'613.1
2018-May-19 03:31N 43°03' E 008°17'712.8
2018-May-19 02:57N 43°01' E 008°07'612.5
2018-May-19 02:30N 43°00' E 007°60'612.5
2018-May-19 02:00N 42°59' E 007°51'612.9
2018-May-19 01:31N 42°57' E 007°43'1212.8
2018-May-19 00:37N 42°55' E 007°27'112.9
2018-May-19 00:31N 42°55' E 007°26'712.6
2018-May-18 23:59N 42°53' E 007°17'812.5
2018-May-18 23:23N 42°52' E 007°07'512.6
2018-May-18 23:01N 42°51' E 007°00'612.5
2018-May-18 22:30N 42°50' E 006°52'9412.1
2018-May-18 14:43N 43°04' E 004°45'312.9
2018-May-18 14:29N 43°05' E 004°41'612.9
2018-May-18 14:00N 43°07' E 004°33'2212.8
2018-May-18 12:19N 43°14' E 004°05'412.6
2018-May-18 11:59N 43°16' E 003°60'812.6
2018-May-18 11:22N 43°19' E 003°50'411.5
2018-May-18 11:00N 43°22' E 003°46'3 6.3
2018-May-18 10:30N 43°24' E 003°43'0 0.1
2018-May-18 06:11N 43°24' E 003°43'0 0.0
2018-May-18 05:41N 43°24' E 003°43'0 0.0
2018-May-18 05:17N 43°24' E 003°43'0 0.0
2018-May-18 03:53N 43°24' E 003°43'0 0.0
2018-May-17 21:53N 43°24' E 003°43'0 0.0
2018-May-17 21:29N 43°24' E 003°43'0 0.0
2018-May-17 20:59N 43°24' E 003°43'0 0.0
2018-May-17 20:29N 43°24' E 003°43'  

Dump ship's entire track history